SHT2B EGLL-EGCC
Flight info
| Callsign | SHT2B |
|---|---|
| Flight time | 0h 31m |
| Altitude | 18000 |
| Route | ULTIB T420 ELVOS |
| Aircraft | A319/M-SDE3FGHIRWY/LB1 |
Departure
| Time | 2026-05-07 20:25 |
|---|---|
| Airport | London Heathrow Airport (EGLL) |
Arrival
| Time | 2026-05-07 20:56 |
|---|---|
| Airport | Manchester Airport (EGCC) |
| Time | Latitude | Longitude | Altitude | Speed | Heading |
|---|---|---|---|---|---|
| 2026-05-07 19:57 | 51.46932 | -0.48647 | 90 ft | 0 kts | 360° |
| 2026-05-07 20:14 | 51.46908 | -0.48647 | 90 ft | 4 kts | 360° |
| 2026-05-07 20:14 | 51.46888 | -0.48647 | 88 ft | 4 kts | 22° |
| 2026-05-07 20:14 | 51.46877 | -0.48671 | 89 ft | 3 kts | 89° |
| 2026-05-07 20:14 | 51.46877 | -0.48700 | 89 ft | 0 kts | 90° |
| 2026-05-07 20:16 | 51.46877 | -0.48694 | 87 ft | 2 kts | 90° |
| 2026-05-07 20:16 | 51.46877 | -0.48652 | 88 ft | 5 kts | 90° |
| 2026-05-07 20:17 | 51.46877 | -0.48575 | 86 ft | 8 kts | 90° |
| 2026-05-07 20:17 | 51.46877 | -0.48555 | 86 ft | 0 kts | 90° |
| 2026-05-07 20:17 | 51.46877 | -0.48546 | 86 ft | 3 kts | 90° |
| 2026-05-07 20:18 | 51.46873 | -0.48498 | 88 ft | 6 kts | 114° |
| 2026-05-07 20:18 | 51.46840 | -0.48469 | 86 ft | 2 kts | 173° |
| 2026-05-07 20:18 | 51.46832 | -0.48469 | 86 ft | 0 kts | 180° |
| 2026-05-07 20:20 | 51.46823 | -0.48469 | 86 ft | 3 kts | 180° |
| 2026-05-07 20:20 | 51.46787 | -0.48469 | 86 ft | 7 kts | 180° |
| 2026-05-07 20:20 | 51.46724 | -0.48469 | 86 ft | 11 kts | 180° |
| 2026-05-07 20:21 | 51.46638 | -0.48469 | 86 ft | 13 kts | 180° |
| 2026-05-07 20:21 | 51.46596 | -0.48468 | 86 ft | 0 kts | 180° |
| 2026-05-07 20:21 | 51.46594 | -0.48468 | 86 ft | 1 kts | 180° |
| 2026-05-07 20:21 | 51.46584 | -0.48468 | 86 ft | 0 kts | 180° |
| 2026-05-07 20:23 | 51.46580 | -0.48468 | 86 ft | 2 kts | 180° |
| 2026-05-07 20:23 | 51.46560 | -0.48468 | 87 ft | 4 kts | 180° |
| 2026-05-07 20:23 | 51.46521 | -0.48468 | 86 ft | 7 kts | 179° |
| 2026-05-07 20:24 | 51.46480 | -0.48419 | 87 ft | 9 kts | 106° |
| 2026-05-07 20:24 | 51.46479 | -0.48300 | 88 ft | 19 kts | 90° |
| 2026-05-07 20:24 | 51.46480 | -0.47768 | 86 ft | 77 kts | 90° |
| 2026-05-07 20:24 | 51.46484 | -0.46603 | 91 ft | 130 kts | 90° |
| 2026-05-07 20:25 | 51.46492 | -0.44934 | 310 ft | 155 kts | 90° |
| 2026-05-07 20:25 | 51.46502 | -0.43225 | 986 ft | 153 kts | 91° |
| 2026-05-07 20:25 | 51.46614 | -0.41492 | 1480 ft | 165 kts | 74° |
| 2026-05-07 20:25 | 51.47240 | -0.39796 | 1798 ft | 191 kts | 50° |
| 2026-05-07 20:26 | 51.48150 | -0.38083 | 2143 ft | 213 kts | 51° |
| 2026-05-07 20:26 | 51.49153 | -0.36163 | 2572 ft | 236 kts | 51° |
| 2026-05-07 20:26 | 51.50256 | -0.34045 | 3251 ft | 254 kts | 51° |
| 2026-05-07 20:26 | 51.51398 | -0.31851 | 4270 ft | 258 kts | 51° |
| 2026-05-07 20:27 | 51.52402 | -0.29453 | 5265 ft | 262 kts | 67° |
| 2026-05-07 20:27 | 51.53051 | -0.26664 | 5805 ft | 269 kts | 68° |
| 2026-05-07 20:27 | 51.54086 | -0.24185 | 5975 ft | 270 kts | 43° |
| 2026-05-07 20:27 | 51.55694 | -0.22663 | 6006 ft | 270 kts | 17° |
| 2026-05-07 20:28 | 51.57552 | -0.22483 | 6006 ft | 270 kts | 348° |
| 2026-05-07 20:28 | 51.59367 | -0.23301 | 5983 ft | 271 kts | 345° |
| 2026-05-07 20:28 | 51.61202 | -0.23991 | 5987 ft | 271 kts | 344° |
| 2026-05-07 20:28 | 51.62947 | -0.25121 | 5982 ft | 271 kts | 332° |
| 2026-05-07 20:29 | 51.64604 | -0.26570 | 5982 ft | 271 kts | 330° |
| 2026-05-07 20:29 | 51.66237 | -0.28087 | 5983 ft | 271 kts | 329° |
| 2026-05-07 20:29 | 51.67857 | -0.29635 | 5982 ft | 271 kts | 329° |
| 2026-05-07 20:29 | 51.69476 | -0.31196 | 5993 ft | 272 kts | 329° |
| 2026-05-07 20:30 | 51.71121 | -0.32789 | 6695 ft | 276 kts | 328° |
| 2026-05-07 20:30 | 51.72765 | -0.34384 | 7686 ft | 276 kts | 328° |
| 2026-05-07 20:30 | 51.74420 | -0.35988 | 8635 ft | 279 kts | 327° |
| 2026-05-07 20:30 | 51.76094 | -0.37609 | 9561 ft | 283 kts | 327° |
| 2026-05-07 20:31 | 51.77797 | -0.39259 | 10352 ft | 292 kts | 327° |
| 2026-05-07 20:31 | 51.79606 | -0.41015 | 10651 ft | 315 kts | 327° |
| 2026-05-07 20:31 | 51.81544 | -0.42898 | 11084 ft | 331 kts | 327° |
| 2026-05-07 20:31 | 51.83547 | -0.44844 | 11744 ft | 339 kts | 327° |
| 2026-05-07 20:32 | 51.85588 | -0.46822 | 12471 ft | 344 kts | 327° |
| 2026-05-07 20:32 | 51.87656 | -0.48830 | 13198 ft | 350 kts | 327° |
| 2026-05-07 20:32 | 51.89758 | -0.50873 | 13841 ft | 355 kts | 327° |
| 2026-05-07 20:32 | 51.91883 | -0.52945 | 14029 ft | 357 kts | 327° |
| 2026-05-07 20:33 | 51.94008 | -0.55016 | 14078 ft | 357 kts | 327° |
| 2026-05-07 20:33 | 51.96135 | -0.57091 | 14080 ft | 357 kts | 327° |
| 2026-05-07 20:33 | 51.98263 | -0.59169 | 14076 ft | 357 kts | 327° |
| 2026-05-07 20:33 | 52.00389 | -0.61247 | 14074 ft | 357 kts | 327° |
| 2026-05-07 20:34 | 52.02486 | -0.63300 | 14072 ft | 357 kts | 327° |
| 2026-05-07 20:34 | 52.04612 | -0.65381 | 14062 ft | 357 kts | 327° |
| 2026-05-07 20:34 | 52.06741 | -0.67469 | 14079 ft | 359 kts | 327° |
| 2026-05-07 20:34 | 52.08887 | -0.69581 | 14671 ft | 361 kts | 327° |
| 2026-05-07 20:35 | 52.11044 | -0.71704 | 15365 ft | 363 kts | 327° |
| 2026-05-07 20:35 | 52.13207 | -0.73834 | 16046 ft | 365 kts | 327° |
| 2026-05-07 20:35 | 52.15396 | -0.75991 | 16726 ft | 368 kts | 327° |
| 2026-05-07 20:35 | 52.17591 | -0.78159 | 17402 ft | 371 kts | 327° |
| 2026-05-07 20:36 | 52.19809 | -0.80350 | 17912 ft | 374 kts | 327° |
| 2026-05-07 20:36 | 52.22038 | -0.82553 | 18038 ft | 374 kts | 327° |
| 2026-05-07 20:36 | 52.24263 | -0.84756 | 18058 ft | 374 kts | 326° |
| 2026-05-07 20:36 | 52.26489 | -0.86965 | 18057 ft | 374 kts | 326° |
| 2026-05-07 20:37 | 52.28716 | -0.89178 | 18063 ft | 374 kts | 326° |
| 2026-05-07 20:37 | 52.30940 | -0.91388 | 18056 ft | 374 kts | 326° |
| 2026-05-07 20:37 | 52.33164 | -0.93601 | 18056 ft | 374 kts | 326° |
| 2026-05-07 20:37 | 52.35388 | -0.95819 | 18063 ft | 374 kts | 326° |
| 2026-05-07 20:38 | 52.36864 | -0.97292 | 18064 ft | 374 kts | 326° |
| 2026-05-07 20:38 | 52.39808 | -1.00240 | 18059 ft | 374 kts | 326° |
| 2026-05-07 20:38 | 52.42031 | -1.02471 | 18056 ft | 374 kts | 326° |
| 2026-05-07 20:38 | 52.44252 | -1.04698 | 18043 ft | 375 kts | 326° |
| 2026-05-07 20:39 | 52.45755 | -1.06205 | 18042 ft | 375 kts | 326° |
| 2026-05-07 20:39 | 52.47975 | -1.08436 | 18041 ft | 375 kts | 326° |
| 2026-05-07 20:39 | 52.50198 | -1.10672 | 18039 ft | 375 kts | 326° |
| 2026-05-07 20:39 | 52.52418 | -1.12906 | 18047 ft | 375 kts | 326° |
| 2026-05-07 20:40 | 52.54616 | -1.15117 | 18041 ft | 375 kts | 326° |
| 2026-05-07 20:40 | 52.56841 | -1.17356 | 18037 ft | 375 kts | 326° |
| 2026-05-07 20:40 | 52.59067 | -1.19596 | 18034 ft | 375 kts | 326° |
| 2026-05-07 20:40 | 52.61294 | -1.21837 | 18031 ft | 375 kts | 326° |
| 2026-05-07 20:41 | 52.63526 | -1.24086 | 18029 ft | 375 kts | 326° |
| 2026-05-07 20:41 | 52.65749 | -1.26336 | 18029 ft | 375 kts | 326° |
| 2026-05-07 20:41 | 52.67976 | -1.28594 | 18029 ft | 375 kts | 326° |
| 2026-05-07 20:41 | 52.70199 | -1.30849 | 18029 ft | 375 kts | 326° |
| 2026-05-07 20:42 | 52.72423 | -1.33110 | 18030 ft | 375 kts | 326° |
| 2026-05-07 20:42 | 52.74647 | -1.35380 | 18058 ft | 375 kts | 326° |
| 2026-05-07 20:42 | 52.76868 | -1.37651 | 18066 ft | 375 kts | 326° |
| 2026-05-07 20:42 | 52.79093 | -1.39924 | 18060 ft | 376 kts | 326° |
| 2026-05-07 20:43 | 52.81315 | -1.42193 | 18058 ft | 376 kts | 326° |
| 2026-05-07 20:43 | 52.83538 | -1.44461 | 17733 ft | 375 kts | 326° |
| 2026-05-07 20:43 | 52.85763 | -1.46737 | 17104 ft | 375 kts | 326° |
| 2026-05-07 20:43 | 52.87964 | -1.48996 | 16628 ft | 370 kts | 326° |
| 2026-05-07 20:44 | 52.90133 | -1.51228 | 16164 ft | 365 kts | 326° |
| 2026-05-07 20:44 | 52.92249 | -1.53406 | 15700 ft | 360 kts | 326° |
| 2026-05-07 20:44 | 52.94369 | -1.55585 | 15221 ft | 356 kts | 326° |
| 2026-05-07 20:44 | 52.96462 | -1.57738 | 14766 ft | 352 kts | 326° |
| 2026-05-07 20:45 | 52.98536 | -1.59877 | 14314 ft | 349 kts | 326° |
| 2026-05-07 20:45 | 53.00586 | -1.62002 | 13855 ft | 346 kts | 326° |
| 2026-05-07 20:45 | 53.02619 | -1.64108 | 13367 ft | 343 kts | 326° |
| 2026-05-07 20:45 | 53.04616 | -1.66229 | 12929 ft | 337 kts | 321° |
| 2026-05-07 20:46 | 53.06335 | -1.68796 | 12503 ft | 329 kts | 309° |
| 2026-05-07 20:46 | 53.07806 | -1.71669 | 12161 ft | 322 kts | 307° |
| 2026-05-07 20:46 | 53.09232 | -1.74442 | 12025 ft | 309 kts | 308° |
| 2026-05-07 20:46 | 53.10613 | -1.77107 | 11863 ft | 300 kts | 308° |
| 2026-05-07 20:47 | 53.11965 | -1.79714 | 11523 ft | 297 kts | 308° |
| 2026-05-07 20:47 | 53.13307 | -1.82312 | 11208 ft | 293 kts | 308° |
| 2026-05-07 20:47 | 53.14630 | -1.84878 | 10857 ft | 291 kts | 308° |
| 2026-05-07 20:47 | 53.15943 | -1.87431 | 10518 ft | 289 kts | 307° |
| 2026-05-07 20:48 | 53.17245 | -1.89964 | 10182 ft | 287 kts | 307° |
| 2026-05-07 20:48 | 53.18534 | -1.92475 | 9853 ft | 284 kts | 307° |
| 2026-05-07 20:48 | 53.19794 | -1.94939 | 9466 ft | 282 kts | 307° |
| 2026-05-07 20:48 | 53.21062 | -1.97415 | 9192 ft | 277 kts | 307° |
| 2026-05-07 20:49 | 53.22318 | -1.99784 | 9053 ft | 269 kts | 313° |
| 2026-05-07 20:49 | 53.23836 | -2.01564 | 8883 ft | 267 kts | 330° |
| 2026-05-07 20:49 | 53.25610 | -2.02489 | 8598 ft | 270 kts | 349° |
| 2026-05-07 20:49 | 53.27495 | -2.02492 | 8294 ft | 272 kts | 2° |
| 2026-05-07 20:50 | 53.29382 | -2.02243 | 7975 ft | 272 kts | 2° |
| 2026-05-07 20:50 | 53.31263 | -2.02004 | 7685 ft | 271 kts | 2° |
| 2026-05-07 20:50 | 53.33145 | -2.01773 | 7413 ft | 270 kts | 2° |
| 2026-05-07 20:50 | 53.35013 | -2.01547 | 7083 ft | 269 kts | 2° |
| 2026-05-07 20:51 | 53.36880 | -2.01322 | 6744 ft | 268 kts | 2° |
| 2026-05-07 20:51 | 53.38739 | -2.01096 | 6273 ft | 269 kts | 2° |
| 2026-05-07 20:51 | 53.40649 | -2.00864 | 5515 ft | 281 kts | 3° |
| 2026-05-07 20:51 | 53.42636 | -2.00657 | 4733 ft | 290 kts | 359° |
| 2026-05-07 20:52 | 53.44544 | -2.01551 | 4141 ft | 284 kts | 323° |
| 2026-05-07 20:52 | 53.45737 | -2.03960 | 3898 ft | 262 kts | 289° |
| 2026-05-07 20:52 | 53.45916 | -2.06936 | 3235 ft | 257 kts | 251° |
| 2026-05-07 20:52 | 53.44988 | -2.09330 | 2908 ft | 242 kts | 214° |
| 2026-05-07 20:53 | 53.43538 | -2.10625 | 2611 ft | 232 kts | 207° |
| 2026-05-07 20:53 | 53.42408 | -2.12440 | 2336 ft | 224 kts | 236° |
| 2026-05-07 20:53 | 53.41587 | -2.14557 | 2071 ft | 206 kts | 230° |
| 2026-05-07 20:53 | 53.40751 | -2.16341 | 1773 ft | 184 kts | 227° |
| 2026-05-07 20:54 | 53.39989 | -2.17923 | 1533 ft | 165 kts | 227° |
| 2026-05-07 20:54 | 53.39312 | -2.19331 | 1326 ft | 144 kts | 227° |
| 2026-05-07 20:54 | 53.38716 | -2.20571 | 1125 ft | 131 kts | 227° |
| 2026-05-07 20:54 | 53.38149 | -2.21745 | 947 ft | 129 kts | 229° |
| 2026-05-07 20:55 | 53.37580 | -2.22924 | 764 ft | 130 kts | 229° |
| 2026-05-07 20:55 | 53.37010 | -2.24109 | 576 ft | 132 kts | 229° |
| 2026-05-07 20:55 | 53.36428 | -2.25318 | 396 ft | 134 kts | 229° |
| 2026-05-07 20:55 | 53.35855 | -2.26500 | 268 ft | 117 kts | 233° |
| 2026-05-07 20:56 | 53.35409 | -2.27423 | 259 ft | 72 kts | 231° |
| 2026-05-07 20:56 | 53.35267 | -2.27828 | 248 ft | 18 kts | 253° |
| 2026-05-07 20:56 | 53.35256 | -2.27902 | 246 ft | 4 kts | 259° |
| 2026-05-07 20:56 | 53.35247 | -2.27988 | 242 ft | 7 kts | 261° |
| 2026-05-07 20:57 | 53.35246 | -2.27997 | 242 ft | 0 kts | 261° |
| 2026-05-07 20:57 | 53.35246 | -2.28004 | 242 ft | 4 kts | 261° |
| 2026-05-07 20:57 | 53.35236 | -2.28102 | 237 ft | 13 kts | 260° |
| 2026-05-07 20:57 | 53.35252 | -2.28218 | 239 ft | 7 kts | 324° |
| 2026-05-07 20:58 | 53.35278 | -2.28210 | 236 ft | 4 kts | 37° |
| 2026-05-07 20:58 | 53.35292 | -2.28190 | 237 ft | 2 kts | 40° |
| 2026-05-07 20:58 | 53.35296 | -2.28182 | 237 ft | 3 kts | 48° |
| 2026-05-07 20:58 | 53.35320 | -2.28141 | 239 ft | 7 kts | 44° |
| 2026-05-07 20:59 | 53.35362 | -2.28073 | 241 ft | 11 kts | 44° |
| 2026-05-07 20:59 | 53.35431 | -2.27962 | 244 ft | 16 kts | 41° |
| 2026-05-07 20:59 | 53.35552 | -2.27907 | 247 ft | 17 kts | 5° |
| 2026-05-07 20:59 | 53.35637 | -2.27894 | 247 ft | 10 kts | 6° |
| 2026-05-07 21:00 | 53.35731 | -2.27878 | 247 ft | 18 kts | 5° |
| 2026-05-07 21:00 | 53.35879 | -2.27851 | 247 ft | 25 kts | 6° |
| 2026-05-07 21:00 | 53.36010 | -2.27929 | 247 ft | 22 kts | 315° |
| 2026-05-07 21:00 | 53.36123 | -2.28120 | 247 ft | 24 kts | 315° |
| 2026-05-07 21:01 | 53.36235 | -2.28308 | 247 ft | 12 kts | 315° |
| 2026-05-07 21:01 | 53.36272 | -2.28370 | 247 ft | 8 kts | 314° |
| 2026-05-07 21:01 | 53.36320 | -2.28452 | 247 ft | 11 kts | 315° |
| 2026-05-07 21:01 | 53.36400 | -2.28475 | 247 ft | 13 kts | 346° |
| 2026-05-07 21:02 | 53.36477 | -2.28583 | 247 ft | 16 kts | 315° |
| 2026-05-07 21:02 | 53.36559 | -2.28726 | 247 ft | 18 kts | 310° |
| 2026-05-07 21:02 | 53.36641 | -2.28908 | 247 ft | 21 kts | 315° |
| 2026-05-07 21:02 | 53.36734 | -2.29060 | 247 ft | 16 kts | 327° |
| 2026-05-07 21:03 | 53.36823 | -2.29041 | 247 ft | 12 kts | 21° |
| 2026-05-07 21:03 | 53.36873 | -2.28974 | 247 ft | 5 kts | 47° |
| 2026-05-07 21:03 | 53.36881 | -2.28960 | 247 ft | 2 kts | 47° |
| 2026-05-07 21:03 | 53.36899 | -2.28930 | 247 ft | 5 kts | 43° |
| 2026-05-07 21:04 | 53.36930 | -2.28883 | 247 ft | 7 kts | 43° |
| 2026-05-07 21:04 | 53.36956 | -2.28812 | 247 ft | 7 kts | 90° |
| 2026-05-07 21:04 | 53.36938 | -2.28774 | 247 ft | 5 kts | 135° |
| 2026-05-07 21:04 | 53.36925 | -2.28752 | 247 ft | 0 kts | 134° |
| 2026-05-07 21:05 | 53.36921 | -2.28745 | 247 ft | 1 kts | 134° |
| 2026-05-07 21:05 | 53.36919 | -2.28741 | 247 ft | 0 kts | 134° |